createdAt,value
2017-09-17T00:00:27.264Z,21.97
2017-09-17T00:02:53.209Z,20.73
2017-09-17T00:05:22.382Z,66.87
2017-09-17T00:07:55.774Z,25.60
2017-09-17T00:10:34.430Z,17.67
2017-09-17T00:13:04.278Z,87.93
2017-09-17T00:15:55.981Z,49.90
2017-09-17T00:18:21.912Z,51.17
2017-09-17T00:20:52.146Z,28.73
2017-09-17T00:26:18.102Z,5.50
2017-09-17T00:28:48.622Z,9.20
2017-09-17T00:31:29.417Z,102.10
2017-09-17T00:33:59.429Z,211.83
2017-09-17T00:36:39.594Z,159.97
2017-09-17T00:39:05.534Z,126.90
2017-09-17T00:41:49.159Z,14.60
2017-09-17T00:44:22.522Z,5.90
2017-09-17T00:47:00.337Z,7.20
2017-09-17T00:49:31.785Z,5.67
2017-09-17T00:51:58.849Z,6.67
2017-09-17T00:54:44.737Z,6.07
2017-09-17T00:57:17.614Z,8.00
2017-09-17T00:59:43.541Z,9.80
2017-09-17T01:02:10.578Z,7.73
2017-09-17T01:04:37.290Z,6.30
2017-09-17T01:07:03.317Z,5.60
2017-09-17T01:09:29.370Z,5.00
2017-09-17T01:14:52.028Z,8.10
2017-09-17T01:17:20.721Z,5.97
2017-09-17T01:19:52.788Z,6.83
2017-09-17T01:22:19.449Z,12.33
2017-09-17T01:25:05.449Z,6.93
2017-09-17T01:27:32.227Z,5.30
2017-09-17T01:32:53.149Z,5.13
2017-09-17T01:35:19.219Z,15.07
2017-09-17T01:38:05.635Z,26.43
2017-09-17T01:40:33.661Z,37.87
2017-09-17T01:43:14.070Z,145.73
2017-09-17T01:45:47.139Z,16.70
2017-09-17T01:48:19.518Z,3.87
2017-09-17T01:50:52.822Z,60.37
2017-09-17T01:53:25.361Z,19.30
2017-09-17T01:55:58.677Z,6.60
2017-09-17T01:58:32.074Z,10.63
2017-09-17T02:01:02.686Z,9.80
2017-09-17T02:03:30.025Z,8.50
2017-09-17T02:05:58.011Z,6.47
2017-09-17T02:08:24.033Z,6.30
2017-09-17T02:10:54.109Z,7.80
2017-09-17T02:13:30.370Z,9.27
2017-09-17T02:16:05.022Z,6.90
2017-09-17T02:18:46.522Z,6.03
2017-09-17T02:21:14.686Z,8.30
2017-09-17T02:23:44.530Z,19.93
2017-09-17T02:26:10.571Z,18.10
2017-09-17T02:28:36.489Z,13.00
2017-09-17T02:31:02.544Z,8.53
2017-09-17T02:33:36.977Z,12.30
2017-09-17T02:36:08.511Z,9.57
2017-09-17T02:38:35.170Z,11.53
2017-09-17T02:41:07.226Z,10.70
2017-09-17T02:43:33.916Z,17.43
2017-09-17T02:46:01.918Z,13.30
2017-09-17T02:48:35.171Z,13.33
2017-09-17T02:51:02.220Z,8.93
2017-09-17T02:53:29.236Z,9.97
2017-09-17T02:55:58.045Z,8.03
2017-09-17T02:58:26.823Z,10.20
2017-09-17T03:01:01.551Z,16.30
2017-09-17T03:06:22.145Z,10.80
2017-09-17T03:08:48.189Z,13.70
2017-09-17T03:11:24.575Z,15.80
2017-09-17T03:13:57.973Z,24.97
2017-09-17T03:16:30.336Z,19.13
2017-09-17T03:18:57.079Z,14.60
2017-09-17T03:21:25.846Z,21.40
2017-09-17T03:23:51.933Z,15.23
2017-09-17T03:26:24.205Z,13.60
2017-09-17T03:28:50.134Z,21.60
2017-09-17T03:31:38.802Z,20.07
2017-09-17T03:34:06.793Z,21.60
2017-09-17T03:36:35.893Z,12.07
2017-09-17T03:39:01.838Z,16.13
2017-09-17T03:44:23.002Z,17.30
2017-09-17T03:46:51.017Z,12.40
2017-09-17T03:49:17.045Z,15.83
2017-09-17T03:51:43.149Z,11.17
2017-09-17T03:54:23.275Z,20.97
2017-09-17T03:59:42.606Z,28.87
2017-09-17T04:02:14.358Z,15.50
2017-09-17T04:04:40.521Z,24.47
2017-09-17T04:07:07.283Z,23.60
2017-09-17T04:09:56.186Z,15.90
2017-09-17T04:12:33.729Z,19.47
2017-09-17T04:15:06.232Z,16.60
2017-09-17T04:17:35.572Z,22.10
2017-09-17T04:20:01.639Z,22.37
2017-09-17T04:22:34.208Z,18.63
2017-09-17T04:25:07.808Z,18.17
2017-09-17T04:27:38.218Z,15.03
2017-09-17T04:30:04.177Z,25.07
2017-09-17T04:32:31.947Z,23.50
2017-09-17T04:35:01.281Z,13.30
2017-09-17T04:37:41.817Z,18.10
2017-09-17T04:40:11.290Z,19.93
2017-09-17T04:42:40.697Z,18.53
2017-09-17T04:48:01.529Z,15.07
2017-09-17T04:50:32.058Z,18.13
2017-09-17T04:53:01.230Z,23.30
2017-09-17T04:55:27.190Z,27.17
2017-09-17T04:57:54.229Z,22.50
2017-09-17T05:00:23.736Z,29.03
2017-09-17T05:02:49.770Z,24.43
2017-09-17T05:05:17.771Z,22.00
2017-09-17T05:07:44.815Z,24.17
2017-09-17T05:10:15.618Z,25.53
2017-09-17T05:12:47.209Z,23.33
2017-09-17T05:15:17.610Z,26.33
2017-09-17T05:17:43.649Z,32.90
2017-09-17T05:20:23.329Z,25.07
2017-09-17T05:22:57.958Z,22.77
2017-09-17T05:25:27.621Z,23.00
2017-09-17T05:27:57.054Z,17.67
2017-09-17T05:30:41.410Z,24.43
2017-09-17T05:33:17.929Z,17.27
2017-09-17T05:35:51.480Z,16.47
2017-09-17T05:38:22.033Z,15.83
2017-09-17T05:41:01.245Z,14.93
2017-09-17T05:43:34.956Z,15.73
2017-09-17T05:46:09.400Z,15.27
2017-09-17T05:48:43.689Z,14.03
2017-09-17T05:51:18.096Z,13.07
2017-09-17T05:53:49.732Z,14.90
2017-09-17T05:56:15.807Z,19.33
2017-09-17T05:59:02.646Z,19.23
2017-09-17T06:01:39.368Z,17.93
2017-09-17T06:04:05.400Z,17.77
2017-09-17T06:06:31.353Z,24.87
2017-09-17T06:08:59.538Z,17.90
2017-09-17T06:11:25.481Z,24.40
2017-09-17T06:14:05.698Z,27.13
2017-09-17T06:16:52.229Z,22.13
2017-09-17T06:19:35.929Z,19.83
2017-09-17T06:22:22.482Z,29.43
2017-09-17T06:25:14.595Z,21.70
2017-09-17T06:27:40.657Z,25.07
2017-09-17T06:30:21.718Z,24.93
2017-09-17T06:32:56.592Z,27.90
2017-09-17T06:35:26.152Z,30.30
2017-09-17T06:37:52.188Z,30.40
2017-09-17T06:40:27.858Z,19.80
2017-09-17T06:43:04.126Z,20.57
2017-09-17T06:45:45.622Z,27.97
2017-09-17T06:48:19.117Z,27.03
2017-09-17T06:50:48.540Z,27.83
2017-09-17T06:53:15.584Z,34.90
2017-09-17T06:55:54.171Z,22.83
2017-09-17T06:58:20.933Z,23.70
2017-09-17T07:01:02.330Z,26.37
2017-09-17T07:03:38.904Z,24.50
2017-09-17T07:06:08.275Z,24.90
2017-09-17T07:08:45.889Z,21.63
2017-09-17T07:11:25.454Z,34.23
2017-09-17T07:13:55.341Z,31.67
2017-09-17T07:16:31.610Z,29.37
2017-09-17T07:19:08.178Z,26.37
2017-09-17T07:21:41.054Z,24.50
2017-09-17T07:24:14.542Z,24.00
2017-09-17T07:26:42.285Z,28.03
2017-09-17T07:29:12.830Z,30.77
2017-09-17T07:31:42.217Z,35.30
2017-09-17T07:34:08.249Z,30.03
2017-09-17T07:39:27.811Z,28.93
2017-09-17T07:41:53.779Z,32.73
2017-09-17T07:44:28.567Z,23.27
2017-09-17T07:47:06.997Z,29.30
2017-09-17T07:49:43.829Z,36.47
2017-09-17T07:52:11.896Z,31.37
2017-09-17T07:54:45.521Z,28.60
2017-09-17T07:57:22.052Z,31.47
2017-09-17T08:02:42.014Z,31.40
2017-09-17T08:05:14.431Z,28.67
2017-09-17T08:08:01.036Z,30.93
2017-09-17T08:10:30.745Z,32.40
2017-09-17T08:13:08.005Z,27.40
2017-09-17T08:15:37.957Z,32.83
2017-09-17T08:18:10.284Z,36.63
2017-09-17T08:20:39.803Z,33.50
2017-09-17T08:23:05.862Z,37.57
2017-09-17T08:25:39.239Z,32.17
2017-09-17T08:28:05.929Z,34.87
2017-09-17T08:30:39.317Z,35.77
2017-09-17T08:33:12.624Z,38.30
2017-09-17T08:35:44.338Z,47.33
2017-09-17T08:38:24.978Z,40.00
2017-09-17T08:40:51.029Z,37.00
2017-09-17T08:43:31.844Z,41.87
2017-09-17T08:45:57.826Z,42.60
2017-09-17T08:48:43.860Z,46.40
2017-09-17T08:51:09.861Z,47.37
2017-09-17T08:53:42.111Z,42.90
2017-09-17T08:56:08.846Z,37.70
2017-09-17T08:58:45.534Z,43.40
2017-09-17T09:01:13.403Z,38.23
2017-09-17T09:03:40.086Z,36.10
2017-09-17T09:06:06.086Z,33.93
2017-09-17T09:08:33.753Z,29.80
2017-09-17T09:11:00.455Z,34.57
2017-09-17T09:13:26.416Z,30.60
2017-09-17T09:15:53.219Z,30.20
2017-09-17T09:18:19.155Z,29.00
2017-09-17T09:20:45.833Z,33.87
2017-09-17T09:23:12.513Z,30.07
2017-09-17T09:25:38.447Z,30.67
2017-09-17T09:28:04.402Z,27.20
2017-09-17T09:30:30.349Z,30.90
2017-09-17T09:32:56.297Z,27.10
2017-09-17T09:35:22.980Z,26.03
2017-09-17T09:37:49.282Z,22.23
2017-09-17T09:40:15.962Z,23.70
2017-09-17T09:42:42.022Z,26.03
2017-09-17T09:45:08.090Z,26.00
2017-09-17T09:47:34.059Z,21.73
2017-09-17T09:50:00.003Z,30.63
2017-09-17T09:52:26.402Z,25.20
2017-09-17T09:54:52.412Z,27.53
2017-09-17T09:57:18.403Z,23.73
2017-09-17T09:59:44.346Z,19.20
2017-09-17T10:02:11.101Z,26.13
2017-09-17T10:04:37.043Z,24.27
2017-09-17T10:07:02.960Z,19.73
2017-09-17T10:09:32.856Z,23.90
2017-09-17T10:11:58.807Z,19.70
2017-09-17T10:14:25.506Z,19.53
2017-09-17T10:16:51.469Z,18.27
2017-09-17T10:19:18.246Z,17.33
2017-09-17T10:21:44.170Z,16.60
2017-09-17T10:24:10.156Z,13.87
2017-09-17T10:26:36.078Z,17.17
2017-09-17T10:29:02.010Z,18.60
2017-09-17T10:31:27.955Z,19.30
2017-09-17T10:33:55.420Z,17.80
2017-09-17T10:36:25.700Z,16.30
2017-09-17T10:39:00.066Z,16.63
2017-09-17T10:41:26.730Z,19.57
2017-09-17T10:43:52.652Z,15.67
2017-09-17T10:46:18.582Z,12.90
2017-09-17T10:48:44.634Z,15.30
2017-09-17T10:51:10.591Z,13.07
2017-09-17T10:53:36.517Z,12.67
2017-09-17T10:56:02.506Z,15.97
2017-09-17T10:58:28.433Z,16.03
2017-09-17T11:00:54.383Z,11.00
2017-09-17T11:03:20.308Z,9.53
2017-09-17T11:05:46.322Z,9.97
2017-09-17T11:08:15.985Z,14.63
2017-09-17T11:11:03.592Z,13.40
2017-09-17T11:13:36.622Z,8.10
2017-09-17T11:16:14.248Z,8.43
2017-09-17T11:18:40.211Z,8.47
2017-09-17T11:21:06.293Z,7.50
2017-09-17T11:23:56.811Z,7.47
2017-09-17T11:26:27.191Z,7.33
2017-09-17T11:28:59.888Z,10.30
2017-09-17T11:31:36.162Z,6.03
2017-09-17T11:34:12.770Z,10.90
2017-09-17T11:36:39.816Z,5.47
2017-09-17T11:42:24.162Z,5.50
2017-09-17T11:44:55.106Z,7.50
2017-09-17T11:47:28.789Z,6.27
2017-09-17T11:50:02.158Z,5.43
2017-09-17T11:52:28.246Z,9.53
2017-09-17T11:54:54.296Z,5.03
2017-09-17T11:57:22.069Z,5.77
2017-09-17T11:59:59.166Z,4.67
2017-09-17T12:02:46.439Z,4.90
2017-09-17T12:05:12.519Z,5.03
2017-09-17T12:07:43.733Z,4.07
2017-09-17T12:10:24.691Z,7.53
2017-09-17T12:12:58.333Z,5.80
2017-09-17T12:15:25.347Z,4.67
2017-09-17T12:17:57.586Z,4.77
2017-09-17T12:20:29.408Z,5.73
2017-09-17T12:23:07.006Z,3.50
2017-09-17T12:25:45.419Z,6.10
2017-09-17T12:28:13.361Z,10.03
2017-09-17T12:30:39.410Z,4.37
2017-09-17T12:33:16.726Z,7.17
2017-09-17T12:35:43.736Z,19.23
2017-09-17T12:38:15.179Z,4.60
2017-09-17T12:41:01.330Z,5.03
2017-09-17T12:43:31.221Z,3.30
2017-09-17T12:46:05.555Z,8.03
2017-09-17T12:48:40.179Z,3.00
2017-09-17T12:51:14.386Z,3.37
2017-09-17T12:53:46.046Z,6.70
2017-09-17T12:56:16.390Z,2.53
2017-09-17T12:58:49.166Z,3.63
2017-09-17T13:01:18.746Z,3.50
2017-09-17T13:03:45.446Z,3.07
2017-09-17T13:06:14.610Z,3.17
2017-09-17T13:09:01.872Z,3.50
2017-09-17T13:11:32.734Z,3.97
2017-09-17T13:14:11.306Z,3.10
2017-09-17T13:16:37.303Z,2.37
2017-09-17T13:19:10.190Z,3.10
2017-09-17T13:21:39.786Z,3.23
2017-09-17T13:24:10.520Z,4.70
2017-09-17T13:26:38.273Z,2.40
2017-09-17T13:29:12.349Z,3.27
2017-09-17T13:31:38.274Z,2.53
2017-09-17T13:34:04.222Z,3.10
2017-09-17T13:36:36.462Z,2.83
2017-09-17T13:39:02.434Z,2.33
2017-09-17T13:41:45.835Z,2.23
2017-09-17T13:44:19.458Z,2.20
2017-09-17T13:46:45.518Z,2.10
2017-09-17T13:49:19.855Z,3.23
2017-09-17T13:52:05.338Z,3.90
2017-09-17T13:54:32.694Z,2.47
2017-09-17T13:57:12.165Z,4.13
2017-09-17T13:59:38.144Z,2.33
2017-09-17T14:02:16.702Z,2.00
2017-09-17T14:04:55.453Z,1.90
2017-09-17T14:07:23.182Z,1.93
2017-09-17T14:09:49.154Z,1.90
2017-09-17T14:12:15.862Z,3.37
2017-09-17T14:14:41.849Z,5.23
2017-09-17T14:17:08.541Z,1.77
2017-09-17T14:19:34.521Z,2.20
2017-09-17T14:22:01.222Z,2.47
2017-09-17T14:24:27.141Z,2.20
2017-09-17T14:26:53.176Z,2.47
2017-09-17T14:29:43.663Z,2.23
2017-09-17T14:32:34.551Z,1.77
2017-09-17T14:35:07.327Z,2.80
2017-09-17T14:37:36.781Z,1.97
2017-09-17T14:40:14.410Z,2.30
2017-09-17T14:42:53.783Z,2.43
2017-09-17T14:45:19.840Z,2.83
2017-09-17T14:47:59.944Z,3.13
2017-09-17T14:50:46.901Z,4.43
2017-09-17T14:53:14.671Z,5.10
2017-09-17T14:55:45.140Z,2.23
2017-09-17T14:58:12.292Z,2.53
2017-09-17T15:03:46.910Z,9.20
2017-09-17T15:06:17.495Z,2.70
2017-09-17T15:08:54.014Z,2.87
2017-09-17T15:11:20.021Z,3.70
2017-09-17T15:13:46.970Z,9.33
2017-09-17T15:16:19.639Z,14.03
2017-09-17T15:18:46.404Z,7.83
2017-09-17T15:21:13.998Z,4.47
2017-09-17T15:23:39.934Z,35.47
2017-09-17T15:26:12.098Z,10.57
2017-09-17T15:28:48.790Z,2266.67
2017-09-17T15:31:14.739Z,670.87
2017-09-17T15:33:48.375Z,2266.67
2017-09-17T15:36:18.278Z,569.10
2017-09-17T15:38:48.965Z,2023.03
2017-09-17T15:41:18.822Z,552.23
2017-09-17T15:43:49.368Z,1751.77
2017-09-17T15:46:16.140Z,1612.87
2017-09-17T15:48:45.604Z,282.03
2017-09-17T15:51:16.194Z,733.43
2017-09-17T15:53:42.244Z,1830.93
2017-09-17T15:56:08.221Z,298.43
2017-09-17T15:58:34.210Z,1440.73
2017-09-17T16:01:00.178Z,549.37
2017-09-17T16:03:26.141Z,2266.67
2017-09-17T16:05:52.184Z,2192.50
2017-09-17T16:08:18.116Z,1307.50
2017-09-17T16:10:44.063Z,771.93
2017-09-17T16:13:14.470Z,548.20
2017-09-17T16:15:40.418Z,650.27
2017-09-17T16:18:07.354Z,2138.60
2017-09-17T16:20:33.282Z,2266.67
2017-09-17T16:22:59.263Z,1890.67
2017-09-17T16:25:25.207Z,2266.67
2017-09-17T16:27:55.225Z,1897.00
2017-09-17T16:30:21.174Z,2266.67
2017-09-17T16:32:47.139Z,2266.67
2017-09-17T16:35:13.823Z,2266.67
2017-09-17T16:37:45.944Z,2266.67
2017-09-17T16:40:12.630Z,2266.67
2017-09-17T16:42:38.541Z,2266.67
2017-09-17T16:45:04.616Z,506.10
2017-09-17T16:47:30.566Z,498.87
2017-09-17T16:49:56.597Z,149.67
2017-09-17T16:52:22.589Z,52.33
2017-09-17T16:54:53.046Z,61.20
2017-09-17T16:57:19.279Z,31.70
2017-09-17T16:59:45.231Z,19.40
2017-09-17T17:02:11.988Z,36.93
2017-09-17T17:04:49.286Z,16.27
2017-09-17T17:10:08.765Z,26.07
2017-09-17T17:12:51.894Z,8.50
2017-09-17T17:15:22.026Z,7.50
2017-09-17T17:17:48.736Z,7.97
2017-09-17T17:20:19.167Z,54.37
2017-09-17T17:23:07.061Z,9.40
2017-09-17T17:25:50.764Z,6.37
2017-09-17T17:28:34.564Z,5.17
2017-09-17T17:31:01.255Z,3.60
2017-09-17T17:33:40.107Z,7.73
2017-09-17T17:36:26.994Z,2.73
2017-09-17T17:38:52.960Z,2.63
2017-09-17T17:41:21.033Z,3.17
2017-09-17T17:43:48.782Z,4.23
2017-09-17T17:46:33.642Z,17.03
2017-09-17T17:48:59.720Z,6.83
2017-09-17T17:51:26.733Z,4.87
2017-09-17T17:53:52.716Z,5.37
2017-09-17T17:56:18.771Z,8.53
2017-09-17T17:58:44.713Z,5.60
2017-09-17T18:01:11.447Z,10.57
2017-09-17T18:03:37.395Z,6.47
2017-09-17T18:06:03.373Z,7.50
2017-09-17T18:08:29.318Z,10.20
2017-09-17T18:10:55.295Z,8.63
2017-09-17T18:13:21.961Z,7.03
2017-09-17T18:15:47.895Z,6.83
2017-09-17T18:18:14.629Z,8.00
2017-09-17T18:20:40.564Z,6.73
2017-09-17T18:23:06.526Z,10.80
2017-09-17T18:25:32.494Z,9.03
2017-09-17T18:27:59.217Z,8.33
2017-09-17T18:30:28.343Z,13.93
2017-09-17T18:32:56.141Z,9.40
2017-09-17T18:35:25.361Z,6.43
2017-09-17T18:37:51.285Z,16.07
2017-09-17T18:40:17.250Z,29.97
2017-09-17T18:42:43.177Z,10.03
2017-09-17T18:45:09.235Z,13.13
2017-09-17T18:47:35.162Z,12.70
2017-09-17T18:50:01.098Z,11.47
2017-09-17T18:52:27.038Z,12.70
2017-09-17T18:54:53.182Z,13.80
2017-09-17T18:57:25.528Z,13.33
2017-09-17T18:59:51.443Z,8.10
2017-09-17T19:02:21.661Z,8.30
2017-09-17T19:04:56.014Z,7.13
2017-09-17T19:07:21.950Z,7.37
2017-09-17T19:09:49.997Z,12.50
2017-09-17T19:12:17.746Z,8.10
2017-09-17T19:14:53.350Z,7.00
2017-09-17T19:17:25.877Z,6.83
2017-09-17T19:19:57.647Z,7.07
2017-09-17T19:22:38.518Z,9.30
2017-09-17T19:25:06.229Z,10.43
2017-09-17T19:27:32.151Z,8.53
2017-09-17T19:29:58.084Z,10.47
2017-09-17T19:32:24.025Z,11.97
2017-09-17T19:34:49.985Z,12.43
2017-09-17T19:37:15.935Z,12.50
2017-09-17T19:39:45.276Z,30.17
2017-09-17T19:42:11.251Z,36.63
2017-09-17T19:44:38.310Z,33.00
2017-09-17T19:47:04.991Z,32.30
2017-09-17T19:49:30.958Z,27.40
2017-09-17T19:51:56.918Z,28.73
2017-09-17T19:54:22.926Z,27.17
2017-09-17T19:56:49.642Z,23.57
2017-09-17T19:59:15.583Z,13.43
2017-09-17T20:01:41.534Z,11.33
2017-09-17T20:04:08.202Z,9.37
2017-09-17T20:06:34.197Z,10.23
2017-09-17T20:09:00.885Z,12.43
2017-09-17T20:11:26.816Z,7.37
2017-09-17T20:13:52.757Z,5.47
2017-09-17T20:16:18.684Z,10.80
2017-09-17T20:18:44.651Z,5.47
2017-09-17T20:21:12.406Z,5.60
2017-09-17T20:23:38.345Z,10.30
2017-09-17T20:26:04.254Z,8.30
2017-09-17T20:28:30.523Z,5.67
2017-09-17T20:30:57.195Z,6.70
2017-09-17T20:33:23.196Z,8.90
2017-09-17T20:35:49.205Z,17.00
2017-09-17T20:38:15.905Z,6.23
2017-09-17T20:40:41.893Z,24.80
2017-09-17T20:43:09.638Z,7.40
2017-09-17T20:45:40.574Z,6.80
2017-09-17T20:48:06.601Z,10.23
2017-09-17T20:50:32.695Z,7.97
2017-09-17T20:53:01.741Z,5.27
2017-09-17T20:55:28.698Z,7.90
2017-09-17T20:58:16.186Z,6.17
2017-09-17T21:00:45.723Z,5.77
2017-09-17T21:03:25.697Z,5.40
2017-09-17T21:05:53.444Z,4.90
2017-09-17T21:08:20.105Z,12.83
2017-09-17T21:11:07.988Z,6.80
2017-09-17T21:13:34.949Z,6.60
2017-09-17T21:16:08.104Z,4.50
2017-09-17T21:18:37.866Z,6.97
2017-09-17T21:21:06.380Z,5.23
2017-09-17T21:23:56.831Z,4.43
2017-09-17T21:26:26.557Z,4.27
2017-09-17T21:28:54.310Z,4.30
2017-09-17T21:31:20.354Z,7.77
2017-09-17T21:33:54.790Z,4.73
2017-09-17T21:36:21.514Z,4.47
2017-09-17T21:38:48.576Z,12.53
2017-09-17T21:41:33.379Z,7.40
2017-09-17T21:44:07.977Z,6.30
2017-09-17T21:46:45.621Z,4.13
2017-09-17T21:49:22.346Z,5.27
2017-09-17T21:51:52.966Z,7.17
2017-09-17T21:54:23.404Z,3.97
2017-09-17T21:56:51.137Z,4.33
2017-09-17T21:59:18.102Z,6.30
2017-09-17T22:01:44.124Z,6.57
2017-09-17T22:04:10.157Z,6.03
2017-09-17T22:06:53.237Z,4.10
2017-09-17T22:09:27.728Z,5.10
2017-09-17T22:11:58.347Z,6.07
2017-09-17T22:14:28.965Z,4.93
2017-09-17T22:16:54.984Z,4.23
2017-09-17T22:19:21.951Z,4.73
2017-09-17T22:24:48.845Z,5.23
2017-09-17T22:27:25.382Z,5.30
2017-09-17T22:29:56.639Z,4.90
2017-09-17T22:32:43.502Z,4.77
2017-09-17T22:35:18.114Z,4.50
2017-09-17T22:37:44.026Z,3.63
2017-09-17T22:40:13.678Z,4.53
2017-09-17T22:42:39.757Z,4.80
2017-09-17T22:45:21.239Z,5.93
2017-09-17T22:47:50.406Z,6.30
2017-09-17T22:50:34.402Z,6.70
2017-09-17T22:53:07.186Z,4.97
2017-09-17T22:55:38.574Z,6.67
2017-09-17T22:58:04.610Z,5.20
2017-09-17T23:00:37.303Z,6.43
2017-09-17T23:03:19.431Z,4.20
2017-09-17T23:05:51.865Z,4.77
2017-09-17T23:08:18.614Z,5.17
2017-09-17T23:10:58.797Z,8.77
2017-09-17T23:13:24.717Z,4.70
2017-09-17T23:15:50.718Z,5.73
2017-09-17T23:18:23.933Z,5.47
2017-09-17T23:20:51.977Z,7.63
2017-09-17T23:23:18.013Z,5.33
2017-09-17T23:28:47.991Z,5.30
2017-09-17T23:31:13.938Z,6.30
2017-09-17T23:33:40.259Z,5.23
2017-09-17T23:36:07.261Z,5.70
2017-09-17T23:38:50.921Z,5.07
2017-09-17T23:41:17.942Z,11.70
2017-09-17T23:43:47.981Z,6.17
2017-09-17T23:46:36.471Z,6.67
2017-09-17T23:52:07.661Z,4.07
2017-09-17T23:54:41.271Z,12.13
2017-09-17T23:57:33.873Z,4.97
2017-09-17T23:59:59.812Z,6.13
